createdAt,value
2022-08-01T00:52:39.530Z,14.81
2022-08-01T00:55:26.998Z,14.76
2022-08-01T03:11:28.238Z,13.43
2022-08-01T03:13:57.789Z,13.42
2022-08-01T03:16:31.267Z,13.40
2022-08-01T03:19:01.262Z,13.38
2022-08-01T03:22:05.885Z,13.33
2022-08-01T03:24:54.170Z,13.31
2022-08-01T03:27:32.909Z,13.28
2022-08-01T03:30:09.749Z,13.25
2022-08-01T03:33:01.283Z,13.23
2022-08-01T03:38:29.627Z,13.18
2022-08-01T03:41:25.373Z,13.17
2022-08-01T03:44:07.304Z,13.15
2022-08-01T04:17:16.847Z,12.97
2022-08-01T04:20:01.931Z,13.01
2022-08-01T04:22:44.864Z,13.05
2022-08-01T04:29:52.366Z,13.02
2022-08-01T04:56:11.475Z,12.47
2022-08-01T04:59:31.605Z,12.47
2022-08-01T05:02:01.556Z,12.49
2022-08-01T05:04:32.289Z,12.49
2022-08-01T05:07:15.046Z,12.51
2022-08-01T05:09:43.377Z,12.51
2022-08-01T05:12:17.094Z,12.50
2022-08-01T05:14:46.040Z,12.51
2022-08-01T05:17:32.773Z,12.53
2022-08-01T05:20:01.014Z,12.55
2022-08-01T05:22:29.621Z,12.60
2022-08-01T05:32:36.843Z,12.71
2022-08-01T05:35:07.778Z,12.79
2022-08-01T05:37:36.454Z,12.89
2022-08-01T05:40:21.557Z,13.12
2022-08-01T07:19:42.015Z,15.24
2022-08-01T07:22:12.043Z,15.31
2022-08-01T07:24:54.586Z,15.37
2022-08-01T07:27:25.593Z,15.43
2022-08-01T07:30:09.454Z,15.52
2022-08-01T07:32:42.345Z,15.56
2022-08-01T07:35:12.535Z,15.61
2022-08-01T07:37:48.499Z,15.69
2022-08-01T07:40:26.152Z,15.73
2022-08-01T07:43:06.365Z,15.77
2022-08-01T07:45:34.220Z,15.88
2022-08-01T07:48:08.299Z,15.91
2022-08-01T07:50:38.904Z,15.96
2022-08-01T07:53:23.365Z,16.07
2022-08-01T07:56:13.213Z,16.16
2022-08-01T07:58:43.860Z,16.21
2022-08-01T08:04:02.932Z,16.26
2022-08-01T08:06:45.250Z,16.27
2022-08-01T08:09:24.196Z,16.33
2022-08-01T08:11:52.474Z,16.35
2022-08-01T08:14:32.312Z,16.39
2022-08-01T08:17:03.068Z,16.43
2022-08-01T08:19:39.013Z,16.54
2022-08-01T08:22:10.850Z,16.59
2022-08-01T08:24:46.275Z,16.60
2022-08-01T08:27:19.098Z,16.63
2022-08-01T08:29:49.637Z,16.70
2022-08-01T08:32:26.212Z,17.81
2022-08-01T08:34:56.628Z,20.45
2022-08-01T08:37:26.739Z,22.67
2022-08-01T08:39:59.996Z,24.47
2022-08-01T08:42:31.343Z,25.84
2022-08-01T08:44:59.732Z,26.95
2022-08-01T08:48:07.007Z,27.96
2022-08-01T08:50:47.979Z,28.60
2022-08-01T08:53:18.726Z,28.88
2022-08-01T08:56:02.500Z,28.81
2022-08-01T08:58:31.785Z,28.26
2022-08-01T09:01:06.079Z,27.51
2022-08-01T09:03:53.652Z,27.27
2022-08-01T09:06:29.671Z,27.02
2022-08-01T09:09:03.097Z,25.95
2022-08-01T09:11:42.245Z,25.62
2022-08-01T09:14:18.601Z,25.21
2022-08-01T09:19:57.852Z,26.07
2022-08-01T09:22:50.597Z,26.18
2022-08-01T09:25:18.551Z,25.76
2022-08-01T09:27:54.101Z,25.34
2022-08-01T09:30:23.661Z,24.97
2022-08-01T09:32:58.697Z,24.76
2022-08-01T09:35:36.360Z,24.84
2022-08-01T09:38:22.721Z,24.96
2022-08-01T09:40:55.572Z,24.99
2022-08-01T09:43:27.936Z,24.98
2022-08-01T09:45:57.920Z,24.91
2022-08-01T09:48:29.474Z,24.86
2022-08-01T09:51:09.734Z,24.66
2022-08-01T09:53:54.714Z,24.56
2022-08-01T09:56:25.134Z,24.75
2022-08-01T09:59:01.426Z,24.95
2022-08-01T10:01:36.959Z,25.22
2022-08-01T10:04:12.442Z,25.53
2022-08-01T10:06:46.121Z,25.95
2022-08-01T10:09:15.817Z,26.08
2022-08-01T10:11:49.036Z,26.13
2022-08-01T10:14:22.668Z,26.08
2022-08-01T10:16:56.677Z,26.09
2022-08-01T10:19:31.869Z,25.92
2022-08-01T10:22:01.276Z,25.98
2022-08-01T10:24:33.342Z,26.01
2022-08-01T10:27:09.577Z,25.97
2022-08-01T10:30:05.686Z,25.76
2022-08-01T10:32:37.597Z,25.58
2022-08-01T10:35:14.824Z,25.34
2022-08-01T10:37:51.423Z,25.42
2022-08-01T10:40:31.709Z,25.62
2022-08-01T10:43:03.842Z,25.71
2022-08-01T10:45:33.069Z,25.70
2022-08-01T10:48:08.277Z,25.73
2022-08-01T10:50:48.446Z,25.74
2022-08-01T10:53:31.989Z,25.58
2022-08-01T10:56:13.235Z,25.57
2022-08-01T10:58:49.637Z,25.64
2022-08-01T11:01:25.650Z,25.70
2022-08-01T11:04:06.924Z,25.69
2022-08-01T11:06:52.577Z,25.71
2022-08-01T11:09:36.232Z,25.76
2022-08-01T11:12:22.906Z,25.70
2022-08-01T11:15:31.918Z,25.76
2022-08-01T11:18:02.178Z,25.76
2022-08-01T11:20:34.425Z,25.76
2022-08-01T11:23:28.784Z,25.71
2022-08-01T11:26:29.045Z,25.71
2022-08-01T11:29:22.118Z,25.66
2022-08-01T11:31:54.278Z,25.65
2022-08-01T11:34:42.658Z,25.69
2022-08-01T11:37:30.703Z,25.82
2022-08-01T11:40:19.820Z,25.82
2022-08-01T11:43:20.283Z,25.71
2022-08-01T11:46:06.871Z,25.63
2022-08-01T11:48:37.045Z,25.68
2022-08-01T11:51:09.368Z,25.69
2022-08-01T11:54:06.676Z,25.62
2022-08-01T11:56:43.030Z,25.62
2022-08-01T11:59:19.274Z,25.47
2022-08-01T12:01:49.762Z,25.38
2022-08-01T12:04:20.997Z,25.36
2022-08-01T12:06:49.423Z,25.26
2022-08-01T12:09:23.286Z,25.24
2022-08-01T12:11:51.561Z,24.93
2022-08-01T12:14:23.727Z,24.76
2022-08-01T12:16:57.359Z,24.66
2022-08-01T12:19:28.754Z,24.52
2022-08-01T12:22:11.007Z,24.42
2022-08-01T12:24:42.916Z,24.27
2022-08-01T12:27:13.474Z,24.15
2022-08-01T12:29:47.735Z,24.13
2022-08-01T12:32:35.788Z,24.07
2022-08-01T12:35:06.915Z,24.06
2022-08-01T12:37:42.172Z,24.02
2022-08-01T12:40:15.851Z,24.08
2022-08-01T12:42:45.628Z,24.29
2022-08-01T12:45:18.651Z,24.52
2022-08-01T12:47:52.058Z,24.73
2022-08-01T12:50:32.129Z,24.96
2022-08-01T12:53:07.204Z,25.24
2022-08-01T12:55:59.243Z,25.29
2022-08-01T12:58:34.396Z,25.29
2022-08-01T13:01:06.768Z,25.34
2022-08-01T13:03:35.176Z,25.50
2022-08-01T13:06:11.546Z,25.67
2022-08-01T13:08:40.159Z,25.77
2022-08-01T13:11:21.071Z,25.64
2022-08-01T13:13:52.145Z,25.42
2022-08-01T13:16:34.357Z,25.30
2022-08-01T13:19:07.620Z,25.09
2022-08-01T13:21:53.591Z,24.89
2022-08-01T13:24:33.726Z,24.63
2022-08-01T13:27:26.005Z,24.42
2022-08-01T13:29:54.635Z,24.21
2022-08-01T13:32:29.654Z,23.94
2022-08-01T13:35:05.385Z,23.67
2022-08-01T13:37:34.780Z,23.41
2022-08-01T13:40:08.233Z,23.23
2022-08-01T13:42:40.595Z,23.15
2022-08-01T13:45:22.243Z,23.12
2022-08-01T14:10:50.533Z,22.36
2022-08-01T14:31:09.336Z,23.00
2022-08-01T14:33:49.908Z,22.75
2022-08-01T14:36:29.605Z,22.57
2022-08-01T14:39:00.789Z,22.46
2022-08-01T14:41:31.850Z,22.35
2022-08-01T14:44:02.432Z,22.28
2022-08-01T14:46:31.638Z,22.20
2022-08-01T14:49:06.478Z,22.18
2022-08-01T14:51:47.667Z,22.17
2022-08-01T14:54:18.883Z,22.16
2022-08-01T14:57:00.774Z,22.08
2022-08-01T14:59:28.861Z,22.01
2022-08-01T15:01:58.563Z,21.95
2022-08-01T15:04:27.042Z,21.90
2022-08-01T15:06:56.839Z,21.86
2022-08-01T15:09:42.085Z,21.82
2022-08-01T15:12:11.659Z,21.81
2022-08-01T15:14:56.657Z,21.76
2022-08-01T15:17:44.131Z,21.74
2022-08-01T15:20:13.228Z,21.70
2022-08-01T15:22:51.253Z,21.65
2022-08-01T15:25:40.858Z,21.58
2022-08-01T15:28:26.153Z,21.45
2022-08-01T15:31:39.555Z,21.39
2022-08-01T15:34:10.669Z,21.12
2022-08-01T15:36:43.460Z,21.13
2022-08-01T15:39:22.104Z,21.15
2022-08-01T15:41:53.243Z,21.23
2022-08-01T15:44:28.784Z,21.12
2022-08-01T15:47:37.413Z,21.01
2022-08-01T15:53:07.147Z,20.67
2022-08-01T15:55:52.960Z,20.46
2022-08-01T15:58:21.965Z,20.30
2022-08-01T16:00:50.370Z,20.18
2022-08-01T16:03:19.011Z,20.02
2022-08-01T16:05:47.370Z,19.92
2022-08-01T16:08:15.868Z,19.97
2022-08-01T16:10:47.550Z,19.98
2022-08-01T16:13:18.929Z,19.87
2022-08-01T16:15:54.429Z,19.73
2022-08-01T16:18:23.852Z,19.62
2022-08-01T16:20:59.117Z,19.57
2022-08-01T16:23:31.716Z,19.62
2022-08-01T16:26:02.302Z,19.70
2022-08-01T16:28:33.258Z,19.84
2022-08-01T16:31:12.873Z,19.91
2022-08-01T16:33:53.987Z,20.00
2022-08-01T16:36:27.443Z,20.04
2022-08-01T16:38:57.665Z,20.02
2022-08-01T16:41:27.935Z,20.06
2022-08-01T16:43:56.119Z,20.00
2022-08-01T16:46:26.128Z,20.02
2022-08-01T16:48:55.030Z,20.02
2022-08-01T16:51:23.942Z,19.97
2022-08-01T16:53:55.362Z,19.96
2022-08-01T16:56:31.284Z,19.91
2022-08-01T16:59:00.093Z,19.89
2022-08-01T17:01:59.224Z,19.93
2022-08-01T17:04:17.883Z,19.97
2022-08-01T17:06:49.994Z,20.01
2022-08-01T17:09:28.085Z,20.00
2022-08-01T17:12:10.356Z,19.99
2022-08-01T17:14:40.796Z,19.92
2022-08-01T17:17:10.633Z,19.85
2022-08-01T17:19:42.287Z,19.80
2022-08-01T17:22:13.026Z,19.81
2022-08-01T17:24:55.253Z,19.86
2022-08-01T17:27:29.816Z,19.85
2022-08-01T17:30:26.636Z,19.83
2022-08-01T17:33:10.654Z,19.76
2022-08-01T17:35:39.276Z,19.68
2022-08-01T17:38:17.071Z,19.58
2022-08-01T17:40:45.654Z,19.50
2022-08-01T17:43:35.709Z,19.40
2022-08-01T17:46:08.611Z,19.33
2022-08-01T17:48:37.335Z,19.26
2022-08-01T17:51:06.851Z,19.26
2022-08-01T17:53:35.436Z,19.27
2022-08-01T17:56:06.860Z,19.28
2022-08-01T17:59:02.490Z,19.32
2022-08-01T18:01:31.230Z,19.31
2022-08-01T18:04:00.614Z,19.38
2022-08-01T18:06:37.204Z,19.43
2022-08-01T18:09:09.552Z,19.48
2022-08-01T18:11:59.194Z,19.57
2022-08-01T18:14:40.540Z,19.62
2022-08-01T18:17:13.822Z,19.68
2022-08-01T18:19:52.029Z,19.66
2022-08-01T18:22:33.372Z,19.61
2022-08-01T18:25:26.532Z,19.61
2022-08-01T18:28:22.539Z,19.62
2022-08-01T18:30:59.931Z,19.71
2022-08-01T18:34:29.822Z,19.87
2022-08-01T18:37:18.344Z,19.98
2022-08-01T18:40:25.914Z,20.03
2022-08-01T18:42:56.381Z,20.10
2022-08-01T18:45:44.421Z,20.15
2022-08-01T18:48:21.432Z,20.19
2022-08-01T18:54:20.193Z,20.20
2022-08-01T18:57:16.854Z,20.22
2022-08-01T19:02:50.918Z,20.12
2022-08-01T19:05:23.306Z,20.09
2022-08-01T19:08:13.625Z,20.11
2022-08-01T19:10:50.185Z,20.11
2022-08-01T19:13:28.509Z,20.10
2022-08-01T19:19:27.615Z,20.07
2022-08-01T19:22:32.275Z,20.06
2022-08-01T19:25:12.587Z,20.07
2022-08-01T19:27:55.471Z,20.06
2022-08-01T19:31:48.513Z,20.04
2022-08-01T19:34:05.789Z,20.01
2022-08-01T19:36:40.020Z,20.00
2022-08-01T19:43:02.372Z,19.93
2022-08-01T19:47:13.603Z,19.88
2022-08-01T19:49:47.014Z,19.86
2022-08-01T19:52:56.302Z,19.80
2022-08-01T19:56:16.396Z,19.78
2022-08-01T20:01:50.648Z,19.72
2022-08-01T20:04:41.042Z,19.69
2022-08-01T20:07:23.216Z,19.65
2022-08-01T20:11:10.315Z,19.58
2022-08-01T20:14:04.473Z,19.57
2022-08-01T20:16:38.638Z,19.56
2022-08-01T20:22:41.665Z,19.52
2022-08-01T20:25:39.893Z,19.50
2022-08-01T20:29:01.359Z,19.47
2022-08-01T20:39:53.352Z,19.35
2022-08-01T20:45:27.691Z,19.35
2022-08-01T20:51:56.857Z,19.39
2022-08-01T20:54:49.199Z,19.39
2022-08-01T20:57:26.340Z,19.38
2022-08-01T21:04:04.935Z,19.36
2022-08-01T21:06:38.337Z,19.37
2022-08-01T21:09:22.032Z,19.33
2022-08-01T21:12:43.952Z,19.32
2022-08-01T21:15:33.487Z,19.32
2022-08-01T21:18:20.805Z,19.28
2022-08-01T21:21:32.784Z,19.28
2022-08-01T21:27:20.837Z,19.24
2022-08-01T21:30:55.497Z,19.27
2022-08-01T21:34:37.118Z,19.29
2022-08-01T21:37:52.551Z,19.31
2022-08-01T21:40:42.825Z,19.33
2022-08-01T21:46:20.244Z,19.34
2022-08-01T21:49:15.986Z,19.36
2022-08-01T21:52:04.311Z,19.40
2022-08-01T21:54:50.435Z,19.40
2022-08-01T21:57:57.790Z,19.37
2022-08-01T22:00:34.129Z,19.36
2022-08-01T22:09:38.485Z,19.48
2022-08-01T22:12:18.531Z,19.54
2022-08-01T22:15:12.728Z,19.61
2022-08-01T22:18:23.031Z,19.60
2022-08-01T22:21:16.108Z,19.62
2022-08-01T22:24:31.088Z,19.63
2022-08-01T22:28:06.171Z,19.63
2022-08-01T22:30:35.775Z,19.63
2022-08-01T22:33:33.210Z,19.63
2022-08-01T22:36:12.948Z,19.60
2022-08-01T22:38:51.441Z,19.56
2022-08-01T22:42:01.739Z,19.53
2022-08-01T22:44:45.291Z,19.50
2022-08-01T22:47:31.219Z,19.51
2022-08-01T22:50:36.314Z,19.46
2022-08-01T22:53:37.470Z,19.44
2022-08-01T22:56:28.778Z,19.42
2022-08-01T22:59:42.879Z,19.41
2022-08-01T23:06:02.914Z,19.44
2022-08-01T23:09:17.101Z,19.45
2022-08-01T23:12:09.679Z,19.44
2022-08-01T23:15:06.217Z,19.43
2022-08-01T23:18:14.054Z,19.44
2022-08-01T23:21:18.805Z,19.40
2022-08-01T23:27:56.006Z,19.41
2022-08-01T23:34:20.953Z,19.40
2022-08-01T23:37:31.832Z,19.38
2022-08-01T23:40:33.230Z,19.40
2022-08-01T23:43:26.443Z,19.39
2022-08-01T23:46:04.476Z,19.39
2022-08-01T23:48:46.221Z,19.39
2022-08-01T23:51:24.251Z,19.37
2022-08-01T23:54:02.926Z,19.35
2022-08-01T23:57:06.577Z,19.36
2022-08-01T23:59:53.000Z,19.37
